N521XA KASE-KASE
Flight info
| Callsign | N521XA |
|---|---|
| Flight time | 0h 10m |
| Altitude | 17000 |
| Route | 393700N1074732W 400214N1075447W 400450N1081235W 394340N1074126W |
| Aircraft | H160/L-SBDGRY/S |
Departure
| Time | 2026-04-23 23:05 |
|---|---|
| Airport | Aspen-Pitkin County Airport (Sardy Field) (KASE) |
Arrival
| Time | 2026-04-23 23:15 |
|---|---|
| Airport | Aspen-Pitkin County Airport (Sardy Field) (KASE) |
| Time | Latitude | Longitude | Altitude | Speed | Heading |
|---|---|---|---|---|---|
| 2026-04-23 21:28 | 39.21930 | -106.86468 | 7817 ft | 0 kts | 73° |
| 2026-04-23 21:38 | 39.21926 | -106.86462 | 7817 ft | 5 kts | 158° |
| 2026-04-23 21:38 | 39.21910 | -106.86504 | 7817 ft | 5 kts | 254° |
| 2026-04-23 21:38 | 39.21887 | -106.86537 | 7817 ft | 6 kts | 206° |
| 2026-04-23 21:38 | 39.21820 | -106.86528 | 7817 ft | 13 kts | 157° |
| 2026-04-23 21:39 | 39.21742 | -106.86490 | 7817 ft | 11 kts | 160° |
| 2026-04-23 21:39 | 39.21663 | -106.86454 | 7817 ft | 14 kts | 160° |
| 2026-04-23 21:39 | 39.21556 | -106.86403 | 7817 ft | 19 kts | 160° |
| 2026-04-23 21:39 | 39.21430 | -106.86342 | 7817 ft | 19 kts | 162° |
| 2026-04-23 21:40 | 39.21317 | -106.86290 | 7817 ft | 16 kts | 160° |
| 2026-04-23 21:40 | 39.21227 | -106.86251 | 7817 ft | 9 kts | 180° |
| 2026-04-23 21:40 | 39.21191 | -106.86273 | 7817 ft | 8 kts | 230° |
| 2026-04-23 21:40 | 39.21189 | -106.86346 | 7816 ft | 11 kts | 318° |
| 2026-04-23 21:41 | 39.21308 | -106.86404 | 7824 ft | 29 kts | 339° |
| 2026-04-23 21:41 | 39.21651 | -106.86572 | 7854 ft | 77 kts | 341° |
| 2026-04-23 21:41 | 39.22257 | -106.86866 | 7861 ft | 105 kts | 340° |
| 2026-04-23 21:41 | 39.22962 | -106.87210 | 8015 ft | 111 kts | 340° |
| 2026-04-23 21:42 | 39.23701 | -106.87587 | 8102 ft | 117 kts | 331° |
| 2026-04-23 21:42 | 39.24480 | -106.87970 | 8116 ft | 122 kts | 339° |
| 2026-04-23 21:42 | 39.25286 | -106.88298 | 8244 ft | 124 kts | 334° |
| 2026-04-23 21:42 | 39.26127 | -106.88568 | 8295 ft | 124 kts | 335° |
| 2026-04-23 21:43 | 39.26979 | -106.88836 | 8316 ft | 128 kts | 338° |
| 2026-04-23 21:43 | 39.27829 | -106.89197 | 8314 ft | 131 kts | 328° |
| 2026-04-23 21:43 | 39.28619 | -106.89812 | 8329 ft | 132 kts | 318° |
| 2026-04-23 21:43 | 39.29301 | -106.90580 | 8331 ft | 128 kts | 302° |
| 2026-04-23 21:44 | 39.29801 | -106.91510 | 8331 ft | 128 kts | 297° |
| 2026-04-23 21:44 | 39.30291 | -106.92441 | 8331 ft | 126 kts | 304° |
| 2026-04-23 21:44 | 39.30963 | -106.93226 | 8329 ft | 135 kts | 317° |
| 2026-04-23 21:44 | 39.31732 | -106.93919 | 8335 ft | 132 kts | 321° |
| 2026-04-23 21:45 | 39.32464 | -106.94596 | 8330 ft | 128 kts | 312° |
| 2026-04-23 21:45 | 39.33016 | -106.95439 | 8335 ft | 120 kts | 292° |
| 2026-04-23 21:45 | 39.33333 | -106.96458 | 8336 ft | 125 kts | 287° |
| 2026-04-23 21:45 | 39.33626 | -106.97587 | 8307 ft | 141 kts | 287° |
| 2026-04-23 21:46 | 39.33981 | -106.98780 | 8343 ft | 142 kts | 291° |
| 2026-04-23 21:46 | 39.34410 | -106.99915 | 8327 ft | 144 kts | 294° |
| 2026-04-23 21:46 | 39.34863 | -107.01113 | 8316 ft | 153 kts | 293° |
| 2026-04-23 21:46 | 39.35334 | -107.02343 | 8334 ft | 150 kts | 294° |
| 2026-04-23 21:47 | 39.35799 | -107.03555 | 8329 ft | 152 kts | 293° |
| 2026-04-23 21:47 | 39.36261 | -107.04762 | 8334 ft | 147 kts | 292° |
| 2026-04-23 21:47 | 39.36724 | -107.05987 | 8345 ft | 157 kts | 294° |
| 2026-04-23 21:47 | 39.37236 | -107.07240 | 8355 ft | 156 kts | 297° |
| 2026-04-23 21:48 | 39.37787 | -107.08459 | 8382 ft | 157 kts | 298° |
| 2026-04-23 21:48 | 39.38359 | -107.09627 | 8378 ft | 152 kts | 299° |
| 2026-04-23 21:48 | 39.38934 | -107.10806 | 8378 ft | 156 kts | 299° |
| 2026-04-23 21:48 | 39.39512 | -107.11990 | 8376 ft | 156 kts | 299° |
| 2026-04-23 21:49 | 39.40091 | -107.13185 | 8378 ft | 157 kts | 300° |
| 2026-04-23 21:49 | 39.40701 | -107.14360 | 8388 ft | 157 kts | 304° |
| 2026-04-23 21:49 | 39.41375 | -107.15453 | 8385 ft | 155 kts | 307° |
| 2026-04-23 21:49 | 39.42060 | -107.16533 | 8386 ft | 157 kts | 305° |
| 2026-04-23 21:50 | 39.42752 | -107.17603 | 8378 ft | 155 kts | 306° |
| 2026-04-23 21:50 | 39.43457 | -107.18679 | 8381 ft | 157 kts | 308° |
| 2026-04-23 21:50 | 39.44168 | -107.19765 | 8377 ft | 161 kts | 307° |
| 2026-04-23 21:50 | 39.44896 | -107.20877 | 8385 ft | 162 kts | 308° |
| 2026-04-23 21:51 | 39.45617 | -107.21962 | 8391 ft | 155 kts | 308° |
| 2026-04-23 21:51 | 39.46316 | -107.23017 | 8382 ft | 155 kts | 308° |
| 2026-04-23 21:51 | 39.47022 | -107.24072 | 8386 ft | 154 kts | 307° |
| 2026-04-23 21:51 | 39.47742 | -107.25103 | 8386 ft | 156 kts | 309° |
| 2026-04-23 21:52 | 39.48474 | -107.26142 | 8391 ft | 155 kts | 309° |
| 2026-04-23 21:52 | 39.49196 | -107.27166 | 8379 ft | 157 kts | 310° |
| 2026-04-23 21:52 | 39.49929 | -107.28206 | 8382 ft | 156 kts | 308° |
| 2026-04-23 21:52 | 39.50682 | -107.29215 | 8380 ft | 157 kts | 311° |
| 2026-04-23 21:53 | 39.51481 | -107.30169 | 8374 ft | 155 kts | 313° |
| 2026-04-23 21:53 | 39.52283 | -107.31097 | 8371 ft | 157 kts | 315° |
| 2026-04-23 21:53 | 39.53122 | -107.32007 | 8383 ft | 159 kts | 321° |
| 2026-04-23 21:53 | 39.54038 | -107.32811 | 8382 ft | 159 kts | 324° |
| 2026-04-23 21:54 | 39.54966 | -107.33618 | 8381 ft | 162 kts | 317° |
| 2026-04-23 21:54 | 39.55739 | -107.34648 | 8390 ft | 158 kts | 302° |
| 2026-04-23 21:54 | 39.56263 | -107.35873 | 8394 ft | 155 kts | 291° |
| 2026-04-23 21:54 | 39.56529 | -107.37232 | 8398 ft | 157 kts | 275° |
| 2026-04-23 21:55 | 39.56637 | -107.38619 | 8409 ft | 153 kts | 274° |
| 2026-04-23 21:55 | 39.56722 | -107.40023 | 8408 ft | 156 kts | 274° |
| 2026-04-23 21:55 | 39.56805 | -107.41387 | 8461 ft | 153 kts | 273° |
| 2026-04-23 21:55 | 39.56891 | -107.42779 | 8446 ft | 156 kts | 274° |
| 2026-04-23 21:56 | 39.56976 | -107.44190 | 8436 ft | 158 kts | 274° |
| 2026-04-23 21:56 | 39.57063 | -107.45607 | 8430 ft | 157 kts | 274° |
| 2026-04-23 21:56 | 39.57149 | -107.47012 | 8425 ft | 157 kts | 273° |
| 2026-04-23 21:56 | 39.57232 | -107.48420 | 8416 ft | 156 kts | 275° |
| 2026-04-23 21:57 | 39.57325 | -107.49754 | 8419 ft | 141 kts | 277° |
| 2026-04-23 21:57 | 39.57430 | -107.50999 | 8418 ft | 141 kts | 274° |
| 2026-04-23 21:57 | 39.57501 | -107.52281 | 8438 ft | 143 kts | 273° |
| 2026-04-23 21:57 | 39.57551 | -107.53573 | 8442 ft | 144 kts | 272° |
| 2026-04-23 21:58 | 39.57592 | -107.54859 | 8451 ft | 138 kts | 273° |
| 2026-04-23 21:58 | 39.57602 | -107.56081 | 8459 ft | 132 kts | 271° |
| 2026-04-23 21:58 | 39.57615 | -107.57222 | 8486 ft | 122 kts | 271° |
| 2026-04-23 21:58 | 39.57633 | -107.58290 | 8450 ft | 118 kts | 270° |
| 2026-04-23 21:59 | 39.57654 | -107.59350 | 8411 ft | 117 kts | 273° |
| 2026-04-23 21:59 | 39.57684 | -107.60407 | 8084 ft | 117 kts | 273° |
| 2026-04-23 21:59 | 39.57725 | -107.61462 | 7855 ft | 124 kts | 273° |
| 2026-04-23 22:00 | 39.57927 | -107.63680 | 7767 ft | 125 kts | 277° |
| 2026-04-23 22:00 | 39.58035 | -107.64776 | 7762 ft | 122 kts | 277° |
| 2026-04-23 22:00 | 39.58193 | -107.65874 | 7745 ft | 125 kts | 281° |
| 2026-04-23 22:00 | 39.58380 | -107.66930 | 7746 ft | 118 kts | 281° |
| 2026-04-23 22:01 | 39.58571 | -107.67953 | 7609 ft | 116 kts | 282° |
| 2026-04-23 22:01 | 39.58762 | -107.69008 | 7501 ft | 125 kts | 283° |
| 2026-04-23 22:01 | 39.58959 | -107.70102 | 7467 ft | 124 kts | 283° |
| 2026-04-23 22:01 | 39.59278 | -107.71115 | 7458 ft | 119 kts | 296° |
| 2026-04-23 22:02 | 39.59655 | -107.72024 | 7311 ft | 111 kts | 297° |
| 2026-04-23 22:02 | 39.60014 | -107.72870 | 7182 ft | 104 kts | 291° |
| 2026-04-23 22:02 | 39.60318 | -107.73707 | 7118 ft | 104 kts | 288° |
| 2026-04-23 22:02 | 39.60596 | -107.74596 | 7101 ft | 107 kts | 286° |
| 2026-04-23 22:03 | 39.60872 | -107.75488 | 7098 ft | 105 kts | 286° |
| 2026-04-23 22:03 | 39.61129 | -107.76336 | 7049 ft | 98 kts | 283° |
| 2026-04-23 22:03 | 39.61360 | -107.77135 | 6954 ft | 92 kts | 283° |
| 2026-04-23 22:03 | 39.61567 | -107.77895 | 6905 ft | 87 kts | 278° |
| 2026-04-23 22:04 | 39.61692 | -107.78558 | 6909 ft | 65 kts | 275° |
| 2026-04-23 22:04 | 39.61800 | -107.79034 | 6884 ft | 45 kts | 277° |
| 2026-04-23 22:04 | 39.61901 | -107.79328 | 6871 ft | 30 kts | 275° |
| 2026-04-23 22:04 | 39.61972 | -107.79454 | 6859 ft | 5 kts | 248° |
| 2026-04-23 22:05 | 39.61928 | -107.79506 | 6865 ft | 17 kts | 248° |
| 2026-04-23 22:05 | 39.61825 | -107.79617 | 6872 ft | 20 kts | 248° |
| 2026-04-23 22:05 | 39.61741 | -107.79802 | 6864 ft | 37 kts | 248° |
| 2026-04-23 22:05 | 39.61803 | -107.80154 | 6882 ft | 42 kts | 320° |
| 2026-04-23 22:06 | 39.61987 | -107.80480 | 6873 ft | 47 kts | 303° |
| 2026-04-23 22:06 | 39.62110 | -107.80815 | 6873 ft | 30 kts | 288° |
| 2026-04-23 22:06 | 39.62179 | -107.80961 | 6856 ft | 12 kts | 11° |
| 2026-04-23 22:06 | 39.62232 | -107.80920 | 6850 ft | 21 kts | 65° |
| 2026-04-23 22:07 | 39.62264 | -107.80725 | 6856 ft | 28 kts | 133° |
| 2026-04-23 22:07 | 39.62090 | -107.80462 | 6869 ft | 45 kts | 98° |
| 2026-04-23 22:07 | 39.61891 | -107.80137 | 6866 ft | 42 kts | 191° |
| 2026-04-23 22:07 | 39.61725 | -107.80386 | 6874 ft | 41 kts | 289° |
| 2026-04-23 22:08 | 39.61724 | -107.80826 | 6866 ft | 58 kts | 280° |
| 2026-04-23 22:08 | 39.61785 | -107.81434 | 6763 ft | 84 kts | 272° |
| 2026-04-23 22:08 | 39.61944 | -107.82294 | 6915 ft | 102 kts | 283° |
| 2026-04-23 22:08 | 39.62133 | -107.83184 | 7262 ft | 103 kts | 285° |
| 2026-04-23 22:09 | 39.62376 | -107.84035 | 7620 ft | 98 kts | 290° |
| 2026-04-23 22:09 | 39.62680 | -107.84809 | 7985 ft | 95 kts | 294° |
| 2026-04-23 22:09 | 39.63023 | -107.85524 | 8198 ft | 92 kts | 298° |
| 2026-04-23 22:09 | 39.63419 | -107.86205 | 8319 ft | 96 kts | 302° |
| 2026-04-23 22:10 | 39.63868 | -107.86814 | 8348 ft | 95 kts | 310° |
| 2026-04-23 22:10 | 39.64373 | -107.87384 | 8363 ft | 96 kts | 313° |
| 2026-04-23 22:10 | 39.64921 | -107.88009 | 8359 ft | 110 kts | 312° |
| 2026-04-23 22:10 | 39.65500 | -107.88652 | 8371 ft | 110 kts | 314° |
| 2026-04-23 22:11 | 39.66090 | -107.89303 | 8378 ft | 111 kts | 311° |
| 2026-04-23 22:11 | 39.66676 | -107.89948 | 8362 ft | 115 kts | 312° |
| 2026-04-23 22:11 | 39.67292 | -107.90633 | 8376 ft | 115 kts | 310° |
| 2026-04-23 22:11 | 39.67894 | -107.91296 | 8378 ft | 115 kts | 312° |
| 2026-04-23 22:12 | 39.68517 | -107.91981 | 8381 ft | 119 kts | 314° |
| 2026-04-23 22:12 | 39.69235 | -107.92542 | 8385 ft | 121 kts | 322° |
| 2026-04-23 22:12 | 39.69973 | -107.93085 | 8394 ft | 122 kts | 321° |
| 2026-04-23 22:12 | 39.70703 | -107.93619 | 8392 ft | 120 kts | 324° |
| 2026-04-23 22:13 | 39.71453 | -107.94089 | 8392 ft | 123 kts | 338° |
| 2026-04-23 22:13 | 39.72325 | -107.94276 | 8416 ft | 130 kts | 350° |
| 2026-04-23 22:13 | 39.73214 | -107.94370 | 8414 ft | 125 kts | 348° |
| 2026-04-23 22:13 | 39.74076 | -107.94450 | 8404 ft | 125 kts | 347° |
| 2026-04-23 22:14 | 39.74938 | -107.94531 | 8408 ft | 123 kts | 349° |
| 2026-04-23 22:14 | 39.75791 | -107.94612 | 8407 ft | 124 kts | 349° |
| 2026-04-23 22:14 | 39.76663 | -107.94697 | 8414 ft | 126 kts | 348° |
| 2026-04-23 22:14 | 39.77521 | -107.94775 | 8414 ft | 124 kts | 345° |
| 2026-04-23 22:15 | 39.78389 | -107.94859 | 8418 ft | 125 kts | 347° |
| 2026-04-23 22:15 | 39.79257 | -107.94941 | 8420 ft | 126 kts | 350° |
| 2026-04-23 22:15 | 39.80128 | -107.95023 | 8424 ft | 125 kts | 347° |
| 2026-04-23 22:15 | 39.81012 | -107.95113 | 8414 ft | 134 kts | 345° |
| 2026-04-23 22:16 | 39.81985 | -107.95261 | 8431 ft | 141 kts | 341° |
| 2026-04-23 22:16 | 39.82871 | -107.95784 | 8437 ft | 141 kts | 326° |
| 2026-04-23 22:16 | 39.83684 | -107.96448 | 8436 ft | 137 kts | 321° |
| 2026-04-23 22:16 | 39.84476 | -107.97132 | 8429 ft | 138 kts | 321° |
| 2026-04-23 22:17 | 39.85274 | -107.97843 | 8423 ft | 145 kts | 319° |
| 2026-04-23 22:17 | 39.86100 | -107.98576 | 8478 ft | 139 kts | 323° |
| 2026-04-23 22:17 | 39.86900 | -107.99268 | 8454 ft | 137 kts | 320° |
| 2026-04-23 22:17 | 39.87694 | -107.99958 | 8435 ft | 139 kts | 319° |
| 2026-04-23 22:18 | 39.88488 | -108.00650 | 8430 ft | 138 kts | 320° |
| 2026-04-23 22:18 | 39.89267 | -108.01326 | 8438 ft | 136 kts | 321° |
| 2026-04-23 22:18 | 39.90065 | -108.02024 | 8435 ft | 140 kts | 323° |
| 2026-04-23 22:18 | 39.90859 | -108.02709 | 8448 ft | 134 kts | 321° |
| 2026-04-23 22:19 | 39.91632 | -108.03373 | 8441 ft | 133 kts | 319° |
| 2026-04-23 22:19 | 39.92407 | -108.04009 | 8457 ft | 131 kts | 326° |
| 2026-04-23 22:19 | 39.93236 | -108.04559 | 8446 ft | 134 kts | 327° |
| 2026-04-23 22:19 | 39.94077 | -108.05087 | 8455 ft | 134 kts | 328° |
| 2026-04-23 22:20 | 39.94903 | -108.05598 | 8456 ft | 131 kts | 329° |
| 2026-04-23 22:20 | 39.95734 | -108.06120 | 8459 ft | 134 kts | 327° |
| 2026-04-23 22:20 | 39.96573 | -108.06642 | 8464 ft | 134 kts | 330° |
| 2026-04-23 22:20 | 39.97418 | -108.07167 | 8462 ft | 135 kts | 330° |
| 2026-04-23 22:21 | 39.98275 | -108.07706 | 8469 ft | 134 kts | 329° |
| 2026-04-23 22:21 | 39.99112 | -108.08226 | 8456 ft | 133 kts | 328° |
| 2026-04-23 22:21 | 39.99910 | -108.08784 | 8417 ft | 131 kts | 323° |
| 2026-04-23 22:21 | 40.00673 | -108.09435 | 8076 ft | 131 kts | 323° |
| 2026-04-23 22:22 | 40.01421 | -108.10101 | 7696 ft | 134 kts | 321° |
| 2026-04-23 22:22 | 40.02113 | -108.10896 | 7322 ft | 133 kts | 311° |
| 2026-04-23 22:22 | 40.02733 | -108.11821 | 7009 ft | 136 kts | 308° |
| 2026-04-23 22:22 | 40.03324 | -108.12758 | 6666 ft | 130 kts | 304° |
| 2026-04-23 22:23 | 40.03911 | -108.13661 | 6529 ft | 129 kts | 307° |
| 2026-04-23 22:23 | 40.04489 | -108.14497 | 6487 ft | 119 kts | 305° |
| 2026-04-23 22:23 | 40.05027 | -108.15278 | 6469 ft | 112 kts | 308° |
| 2026-04-23 22:23 | 40.05531 | -108.16012 | 6460 ft | 105 kts | 308° |
| 2026-04-23 22:24 | 40.05995 | -108.16686 | 6477 ft | 93 kts | 308° |
| 2026-04-23 22:24 | 40.06367 | -108.17200 | 6456 ft | 69 kts | 302° |
| 2026-04-23 22:24 | 40.06677 | -108.17636 | 6400 ft | 63 kts | 301° |
| 2026-04-23 22:24 | 40.06960 | -108.18036 | 6350 ft | 57 kts | 302° |
| 2026-04-23 22:25 | 40.07190 | -108.18409 | 6328 ft | 51 kts | 295° |
| 2026-04-23 22:25 | 40.07396 | -108.18764 | 6313 ft | 49 kts | 295° |
| 2026-04-23 22:25 | 40.07583 | -108.19146 | 6307 ft | 51 kts | 294° |
| 2026-04-23 22:25 | 40.07769 | -108.19555 | 6305 ft | 53 kts | 293° |
| 2026-04-23 22:26 | 40.07946 | -108.19966 | 6285 ft | 49 kts | 294° |
| 2026-04-23 22:26 | 40.08103 | -108.20326 | 6272 ft | 43 kts | 291° |
| 2026-04-23 22:26 | 40.08255 | -108.20683 | 6265 ft | 47 kts | 295° |
| 2026-04-23 22:26 | 40.08465 | -108.21017 | 6259 ft | 51 kts | 320° |
| 2026-04-23 22:27 | 40.08839 | -108.20969 | 6260 ft | 62 kts | 15° |
| 2026-04-23 22:27 | 40.09099 | -108.20493 | 6259 ft | 69 kts | 99° |
| 2026-04-23 22:27 | 40.08996 | -108.19852 | 6264 ft | 73 kts | 184° |
| 2026-04-23 22:27 | 40.08577 | -108.19506 | 6247 ft | 77 kts | 194° |
| 2026-04-23 22:28 | 40.07974 | -108.19433 | 6283 ft | 91 kts | 191° |
| 2026-04-23 22:28 | 40.07274 | -108.19100 | 6266 ft | 117 kts | 159° |
| 2026-04-23 22:28 | 40.06793 | -108.18245 | 6592 ft | 116 kts | 123° |
| 2026-04-23 22:28 | 40.06432 | -108.17264 | 6789 ft | 124 kts | 120° |
| 2026-04-23 22:29 | 40.05890 | -108.16390 | 6742 ft | 126 kts | 142° |
| 2026-04-23 22:29 | 40.05243 | -108.15616 | 6728 ft | 127 kts | 143° |
| 2026-04-23 22:29 | 40.04544 | -108.14791 | 6696 ft | 147 kts | 145° |
| 2026-04-23 22:29 | 40.03784 | -108.13900 | 6767 ft | 143 kts | 142° |
| 2026-04-23 22:30 | 40.03067 | -108.13048 | 7104 ft | 135 kts | 141° |
| 2026-04-23 22:30 | 40.02391 | -108.12241 | 7358 ft | 128 kts | 141° |
| 2026-04-23 22:30 | 40.01951 | -108.11266 | 7423 ft | 125 kts | 105° |
| 2026-04-23 22:30 | 40.01801 | -108.10156 | 7457 ft | 122 kts | 99° |
| 2026-04-23 22:31 | 40.01692 | -108.09050 | 7455 ft | 124 kts | 98° |
| 2026-04-23 22:31 | 40.01741 | -108.07947 | 7467 ft | 123 kts | 70° |
| 2026-04-23 22:31 | 40.02065 | -108.06751 | 7203 ft | 159 kts | 68° |
| 2026-04-23 22:31 | 40.02524 | -108.05260 | 6809 ft | 192 kts | 70° |
| 2026-04-23 22:32 | 40.03018 | -108.03635 | 6629 ft | 193 kts | 75° |
| 2026-04-23 22:32 | 40.03211 | -108.01914 | 6540 ft | 190 kts | 97° |
| 2026-04-23 22:32 | 40.03061 | -108.00252 | 6511 ft | 184 kts | 111° |
| 2026-04-23 22:32 | 40.02637 | -107.98677 | 6503 ft | 181 kts | 120° |
| 2026-04-23 22:33 | 40.02190 | -107.97141 | 6500 ft | 180 kts | 117° |
| 2026-04-23 22:33 | 40.01848 | -107.95643 | 6509 ft | 170 kts | 102° |
| 2026-04-23 22:33 | 40.02015 | -107.94189 | 6537 ft | 152 kts | 70° |
| 2026-04-23 22:33 | 40.02448 | -107.93010 | 6524 ft | 137 kts | 64° |
| 2026-04-23 22:34 | 40.02872 | -107.91982 | 6628 ft | 117 kts | 64° |
| 2026-04-23 22:34 | 40.03204 | -107.91192 | 6702 ft | 82 kts | 60° |
| 2026-04-23 22:34 | 40.03562 | -107.90636 | 6716 ft | 89 kts | 29° |
| 2026-04-23 22:34 | 40.04133 | -107.90423 | 6944 ft | 82 kts | 345° |
| 2026-04-23 22:35 | 40.04616 | -107.90667 | 7033 ft | 70 kts | 304° |
| 2026-04-23 22:35 | 40.04813 | -107.91170 | 7071 ft | 57 kts | 262° |
| 2026-04-23 22:35 | 40.04688 | -107.91615 | 7079 ft | 52 kts | 239° |
| 2026-04-23 22:35 | 40.04477 | -107.92004 | 7081 ft | 53 kts | 225° |
| 2026-04-23 22:36 | 40.04102 | -107.92167 | 7087 ft | 60 kts | 197° |
| 2026-04-23 22:36 | 40.03666 | -107.92040 | 7091 ft | 71 kts | 169° |
| 2026-04-23 22:36 | 40.03231 | -107.91589 | 7045 ft | 99 kts | 147° |
| 2026-04-23 22:36 | 40.02665 | -107.90890 | 7089 ft | 115 kts | 146° |
| 2026-04-23 22:37 | 40.02048 | -107.90333 | 7089 ft | 101 kts | 178° |
| 2026-04-23 22:37 | 40.01283 | -107.90301 | 6963 ft | 127 kts | 193° |
| 2026-04-23 22:37 | 40.00412 | -107.90590 | 7160 ft | 124 kts | 207° |
| 2026-04-23 22:37 | 39.99619 | -107.90918 | 7264 ft | 117 kts | 206° |
| 2026-04-23 22:38 | 39.98852 | -107.91404 | 7249 ft | 130 kts | 214° |
| 2026-04-23 22:38 | 39.98030 | -107.92074 | 7181 ft | 147 kts | 216° |
| 2026-04-23 22:38 | 39.97140 | -107.92772 | 7274 ft | 150 kts | 214° |
| 2026-04-23 22:38 | 39.96206 | -107.93392 | 7411 ft | 151 kts | 213° |
| 2026-04-23 22:39 | 39.95364 | -107.94157 | 7634 ft | 146 kts | 218° |
| 2026-04-23 22:39 | 39.94408 | -107.94573 | 7787 ft | 152 kts | 194° |
| 2026-04-23 22:39 | 39.93360 | -107.94392 | 7968 ft | 149 kts | 174° |
| 2026-04-23 22:39 | 39.92392 | -107.94033 | 8227 ft | 141 kts | 165° |
| 2026-04-23 22:40 | 39.91483 | -107.93590 | 8467 ft | 140 kts | 166° |
| 2026-04-23 22:40 | 39.90562 | -107.93100 | 8626 ft | 147 kts | 163° |
| 2026-04-23 22:40 | 39.88405 | -107.92280 | 8633 ft | 172 kts | 174° |
| 2026-04-23 22:41 | 39.87219 | -107.92063 | 8561 ft | 173 kts | 180° |
| 2026-04-23 22:41 | 39.86037 | -107.91859 | 8507 ft | 173 kts | 178° |
| 2026-04-23 22:41 | 39.84900 | -107.91612 | 8547 ft | 162 kts | 177° |
| 2026-04-23 22:41 | 39.83840 | -107.91307 | 8577 ft | 150 kts | 170° |
| 2026-04-23 22:42 | 39.82897 | -107.90926 | 8652 ft | 134 kts | 165° |
| 2026-04-23 22:42 | 39.82036 | -107.90544 | 8831 ft | 130 kts | 169° |
| 2026-04-23 22:42 | 39.81125 | -107.90345 | 9032 ft | 139 kts | 184° |
| 2026-04-23 22:42 | 39.80102 | -107.90285 | 9113 ft | 155 kts | 186° |
| 2026-04-23 22:43 | 39.78970 | -107.90165 | 9107 ft | 171 kts | 183° |
| 2026-04-23 22:43 | 39.77740 | -107.89957 | 8865 ft | 184 kts | 179° |
| 2026-04-23 22:43 | 39.76500 | -107.89668 | 8817 ft | 175 kts | 175° |
| 2026-04-23 22:43 | 39.75336 | -107.89326 | 8885 ft | 170 kts | 174° |
| 2026-04-23 22:44 | 39.74181 | -107.88928 | 8873 ft | 173 kts | 172° |
| 2026-04-23 22:44 | 39.73020 | -107.88469 | 8761 ft | 176 kts | 168° |
| 2026-04-23 22:44 | 39.71886 | -107.87857 | 8701 ft | 182 kts | 158° |
| 2026-04-23 22:44 | 39.70813 | -107.86942 | 8685 ft | 187 kts | 147° |
| 2026-04-23 22:45 | 39.69874 | -107.85772 | 8598 ft | 188 kts | 138° |
| 2026-04-23 22:45 | 39.69073 | -107.84431 | 8586 ft | 188 kts | 129° |
| 2026-04-23 22:45 | 39.68403 | -107.82979 | 8511 ft | 187 kts | 122° |
| 2026-04-23 22:45 | 39.67807 | -107.81506 | 8500 ft | 182 kts | 121° |
| 2026-04-23 22:46 | 39.67299 | -107.80018 | 8564 ft | 181 kts | 110° |
| 2026-04-23 22:46 | 39.67059 | -107.78436 | 8501 ft | 176 kts | 97° |
| 2026-04-23 22:46 | 39.66925 | -107.76878 | 8645 ft | 171 kts | 97° |
| 2026-04-23 22:46 | 39.66829 | -107.75347 | 8715 ft | 169 kts | 96° |
| 2026-04-23 22:47 | 39.66796 | -107.73818 | 8789 ft | 170 kts | 88° |
| 2026-04-23 22:47 | 39.67094 | -107.72357 | 8753 ft | 167 kts | 57° |
| 2026-04-23 22:47 | 39.67809 | -107.71259 | 8662 ft | 157 kts | 32° |
| 2026-04-23 22:47 | 39.68726 | -107.70619 | 8708 ft | 144 kts | 14° |
| 2026-04-23 22:48 | 39.69633 | -107.70156 | 8706 ft | 137 kts | 11° |
| 2026-04-23 22:48 | 39.70488 | -107.69704 | 8545 ft | 126 kts | 18° |
| 2026-04-23 22:48 | 39.71205 | -107.69276 | 8249 ft | 97 kts | 2° |
| 2026-04-23 22:48 | 39.71765 | -107.69056 | 8085 ft | 74 kts | 349° |
| 2026-04-23 22:49 | 39.72246 | -107.69044 | 7948 ft | 64 kts | 18° |
| 2026-04-23 22:49 | 39.72621 | -107.68988 | 7845 ft | 43 kts | 12° |
| 2026-04-23 22:49 | 39.72859 | -107.68909 | 7847 ft | 28 kts | 12° |
| 2026-04-23 22:49 | 39.73004 | -107.68867 | 7845 ft | 15 kts | 11° |
| 2026-04-23 22:50 | 39.73063 | -107.68857 | 7848 ft | 1 kts | 60° |
| 2026-04-23 22:50 | 39.73063 | -107.68855 | 7847 ft | 1 kts | 140° |
| 2026-04-23 22:50 | 39.73060 | -107.68853 | 7849 ft | 1 kts | 176° |
| 2026-04-23 22:50 | 39.73058 | -107.68856 | 7856 ft | 1 kts | 178° |
| 2026-04-23 22:51 | 39.73039 | -107.68856 | 7850 ft | 4 kts | 178° |
| 2026-04-23 22:51 | 39.73013 | -107.68855 | 7843 ft | 4 kts | 178° |
| 2026-04-23 22:51 | 39.72988 | -107.68854 | 7831 ft | 2 kts | 178° |
| 2026-04-23 22:51 | 39.72981 | -107.68856 | 7801 ft | 7 kts | 177° |
| 2026-04-23 22:52 | 39.72797 | -107.68843 | 7862 ft | 46 kts | 179° |
| 2026-04-23 22:52 | 39.72351 | -107.68830 | 7909 ft | 82 kts | 191° |
| 2026-04-23 22:52 | 39.71694 | -107.69019 | 7955 ft | 105 kts | 210° |
| 2026-04-23 22:52 | 39.71007 | -107.69257 | 7956 ft | 100 kts | 205° |
| 2026-04-23 22:53 | 39.70331 | -107.69488 | 7951 ft | 103 kts | 205° |
| 2026-04-23 22:53 | 39.69645 | -107.69731 | 7963 ft | 100 kts | 205° |
| 2026-04-23 22:53 | 39.68979 | -107.69966 | 7959 ft | 99 kts | 210° |
| 2026-04-23 22:53 | 39.68311 | -107.70199 | 7948 ft | 101 kts | 207° |
| 2026-04-23 22:54 | 39.67614 | -107.70432 | 7952 ft | 103 kts | 205° |
| 2026-04-23 22:54 | 39.66924 | -107.70660 | 7962 ft | 103 kts | 202° |
| 2026-04-23 22:54 | 39.66232 | -107.70887 | 7954 ft | 103 kts | 205° |
| 2026-04-23 22:54 | 39.65520 | -107.71104 | 7971 ft | 109 kts | 194° |
| 2026-04-23 22:55 | 39.65011 | -107.71021 | 7975 ft | 114 kts | 177° |
| 2026-04-23 22:55 | 39.64276 | -107.70642 | 7976 ft | 115 kts | 160° |
| 2026-04-23 22:55 | 39.63582 | -107.70083 | 8001 ft | 121 kts | 153° |
| 2026-04-23 22:55 | 39.62895 | -107.69454 | 8047 ft | 120 kts | 154° |
| 2026-04-23 22:56 | 39.62223 | -107.68836 | 8061 ft | 116 kts | 151° |
| 2026-04-23 22:56 | 39.61356 | -107.68033 | 8060 ft | 118 kts | 142° |
| 2026-04-23 22:56 | 39.60922 | -107.67562 | 8066 ft | 120 kts | 140° |
| 2026-04-23 22:56 | 39.60331 | -107.66808 | 8072 ft | 121 kts | 137° |
| 2026-04-23 22:57 | 39.59715 | -107.65984 | 8160 ft | 129 kts | 141° |
| 2026-04-23 22:57 | 39.59079 | -107.65145 | 8426 ft | 136 kts | 138° |
| 2026-04-23 22:57 | 39.58490 | -107.64092 | 8519 ft | 154 kts | 126° |
| 2026-04-23 22:57 | 39.57966 | -107.62798 | 8575 ft | 170 kts | 120° |
| 2026-04-23 22:58 | 39.57462 | -107.61351 | 8553 ft | 182 kts | 116° |
| 2026-04-23 22:58 | 39.56987 | -107.59771 | 8438 ft | 194 kts | 114° |
| 2026-04-23 22:58 | 39.56602 | -107.58046 | 8280 ft | 204 kts | 104° |
| 2026-04-23 22:58 | 39.56459 | -107.56203 | 8194 ft | 203 kts | 91° |
| 2026-04-23 22:59 | 39.56488 | -107.54419 | 8282 ft | 193 kts | 86° |
| 2026-04-23 22:59 | 39.56594 | -107.52712 | 8429 ft | 189 kts | 85° |
| 2026-04-23 22:59 | 39.56693 | -107.50993 | 8430 ft | 193 kts | 85° |
| 2026-04-23 22:59 | 39.56741 | -107.49248 | 8396 ft | 196 kts | 89° |
| 2026-04-23 23:00 | 39.56737 | -107.47465 | 8338 ft | 198 kts | 91° |
| 2026-04-23 23:00 | 39.56675 | -107.45694 | 8367 ft | 196 kts | 92° |
| 2026-04-23 23:00 | 39.56558 | -107.43957 | 8401 ft | 191 kts | 97° |
| 2026-04-23 23:00 | 39.56388 | -107.42286 | 8407 ft | 188 kts | 99° |
| 2026-04-23 23:01 | 39.56161 | -107.40615 | 8442 ft | 185 kts | 101° |
| 2026-04-23 23:01 | 39.55900 | -107.38991 | 8518 ft | 183 kts | 103° |
| 2026-04-23 23:01 | 39.55605 | -107.37409 | 8568 ft | 182 kts | 105° |
| 2026-04-23 23:01 | 39.55264 | -107.35799 | 8527 ft | 189 kts | 107° |
| 2026-04-23 23:02 | 39.54761 | -107.34209 | 8379 ft | 193 kts | 124° |
| 2026-04-23 23:02 | 39.53915 | -107.32850 | 8224 ft | 194 kts | 142° |
| 2026-04-23 23:02 | 39.52805 | -107.31875 | 8068 ft | 192 kts | 160° |
| 2026-04-23 23:02 | 39.51611 | -107.31319 | 8147 ft | 174 kts | 170° |
| 2026-04-23 23:03 | 39.50487 | -107.30944 | 8061 ft | 160 kts | 171° |
| 2026-04-23 23:03 | 39.49447 | -107.30555 | 8047 ft | 152 kts | 166° |
| 2026-04-23 23:03 | 39.48522 | -107.29903 | 8150 ft | 155 kts | 149° |
| 2026-04-23 23:03 | 39.47682 | -107.28993 | 8195 ft | 160 kts | 142° |
| 2026-04-23 23:04 | 39.46861 | -107.28035 | 8210 ft | 162 kts | 139° |
| 2026-04-23 23:04 | 39.46028 | -107.27042 | 8212 ft | 163 kts | 142° |
| 2026-04-23 23:04 | 39.45186 | -107.26055 | 8281 ft | 163 kts | 141° |
| 2026-04-23 23:04 | 39.44334 | -107.25076 | 8372 ft | 164 kts | 142° |
| 2026-04-23 23:05 | 39.43456 | -107.24082 | 8425 ft | 173 kts | 140° |
| 2026-04-23 23:05 | 39.42591 | -107.22928 | 8364 ft | 183 kts | 134° |
| 2026-04-23 23:05 | 39.41830 | -107.21581 | 8276 ft | 187 kts | 124° |
| 2026-04-23 23:05 | 39.41249 | -107.20076 | 8253 ft | 187 kts | 113° |
| 2026-04-23 23:06 | 39.40839 | -107.18484 | 8263 ft | 186 kts | 109° |
| 2026-04-23 23:06 | 39.40535 | -107.16863 | 8292 ft | 184 kts | 103° |
| 2026-04-23 23:06 | 39.40331 | -107.15242 | 8343 ft | 181 kts | 99° |
| 2026-04-23 23:06 | 39.40094 | -107.13648 | 8414 ft | 179 kts | 105° |
| 2026-04-23 23:07 | 39.39768 | -107.12115 | 8383 ft | 179 kts | 109° |
| 2026-04-23 23:07 | 39.39345 | -107.10596 | 8380 ft | 180 kts | 114° |
| 2026-04-23 23:07 | 39.38833 | -107.09117 | 8380 ft | 181 kts | 120° |
| 2026-04-23 23:07 | 39.38284 | -107.07650 | 8369 ft | 182 kts | 118° |
| 2026-04-23 23:08 | 39.37736 | -107.06174 | 8416 ft | 182 kts | 118° |
| 2026-04-23 23:08 | 39.37151 | -107.04711 | 8327 ft | 184 kts | 123° |
| 2026-04-23 23:08 | 39.36531 | -107.03248 | 8281 ft | 186 kts | 126° |
| 2026-04-23 23:08 | 39.35788 | -107.01885 | 8255 ft | 185 kts | 134° |
| 2026-04-23 23:09 | 39.34945 | -107.00618 | 8276 ft | 187 kts | 137° |
| 2026-04-23 23:09 | 39.34099 | -106.99332 | 8299 ft | 189 kts | 132° |
| 2026-04-23 23:09 | 39.33377 | -106.97898 | 8350 ft | 192 kts | 120° |
| 2026-04-23 23:09 | 39.32785 | -106.96347 | 8288 ft | 193 kts | 116° |
| 2026-04-23 23:10 | 39.32193 | -106.94808 | 8162 ft | 187 kts | 121° |
| 2026-04-23 23:10 | 39.31381 | -106.93563 | 8172 ft | 177 kts | 148° |
| 2026-04-23 23:10 | 39.30350 | -106.92794 | 8347 ft | 173 kts | 151° |
| 2026-04-23 23:10 | 39.29495 | -106.91666 | 8221 ft | 180 kts | 129° |
| 2026-04-23 23:11 | 39.28788 | -106.90357 | 8146 ft | 173 kts | 129° |
| 2026-04-23 23:11 | 39.28071 | -106.89189 | 8198 ft | 160 kts | 143° |
| 2026-04-23 23:11 | 39.27167 | -106.88436 | 8152 ft | 149 kts | 163° |
| 2026-04-23 23:11 | 39.26305 | -106.87935 | 8190 ft | 121 kts | 169° |
| 2026-04-23 23:12 | 39.25609 | -106.87608 | 8173 ft | 93 kts | 172° |
| 2026-04-23 23:12 | 39.25049 | -106.87352 | 8148 ft | 81 kts | 158° |
| 2026-04-23 23:12 | 39.24562 | -106.87096 | 8140 ft | 70 kts | 157° |
| 2026-04-23 23:12 | 39.24159 | -106.86837 | 8126 ft | 59 kts | 150° |
| 2026-04-23 23:13 | 39.23815 | -106.86600 | 8129 ft | 56 kts | 159° |
| 2026-04-23 23:13 | 39.23447 | -106.86378 | 8172 ft | 61 kts | 165° |
| 2026-04-23 23:13 | 39.23040 | -106.86161 | 8231 ft | 68 kts | 166° |
| 2026-04-23 23:13 | 39.22592 | -106.85905 | 8288 ft | 71 kts | 163° |
| 2026-04-23 23:14 | 39.22153 | -106.85644 | 8283 ft | 68 kts | 165° |
| 2026-04-23 23:14 | 39.21697 | -106.85462 | 8275 ft | 68 kts | 182° |
| 2026-04-23 23:14 | 39.21273 | -106.85567 | 8189 ft | 56 kts | 235° |
| 2026-04-23 23:14 | 39.21114 | -106.85956 | 8111 ft | 52 kts | 291° |
| 2026-04-23 23:15 | 39.21325 | -106.86379 | 7930 ft | 63 kts | 332° |
| 2026-04-23 23:15 | 39.21673 | -106.86578 | 7859 ft | 41 kts | 337° |
| 2026-04-23 23:15 | 39.21850 | -106.86660 | 7835 ft | 20 kts | 334° |
| 2026-04-23 23:15 | 39.21973 | -106.86720 | 7829 ft | 18 kts | 334° |
| 2026-04-23 23:16 | 39.22080 | -106.86757 | 7835 ft | 15 kts | 1° |
| 2026-04-23 23:16 | 39.22171 | -106.86735 | 7834 ft | 10 kts | 11° |
| 2026-04-23 23:16 | 39.22224 | -106.86707 | 7825 ft | 8 kts | 10° |
| 2026-04-23 23:16 | 39.22259 | -106.86694 | 7825 ft | 4 kts | 9° |
| 2026-04-23 23:17 | 39.22270 | -106.86689 | 7813 ft | 1 kts | 10° |